sensor_id;sensor_type;location;lat;lon;timestamp;temperature;humidity
59282;DHT22;45054;52.062;10.010;2024-02-16T00:00:02;11.70;99.90
59282;DHT22;45054;52.062;10.010;2024-02-16T00:02:28;11.70;99.90
59282;DHT22;45054;52.062;10.010;2024-02-16T00:04:53;11.70;99.90
59282;DHT22;45054;52.062;10.010;2024-02-16T00:07:19;11.80;99.90
59282;DHT22;45054;52.062;10.010;2024-02-16T00:09:44;11.80;99.90
59282;DHT22;45054;52.062;10.010;2024-02-16T00:12:10;11.90;99.90
59282;DHT22;45054;52.062;10.010;2024-02-16T00:14:37;11.90;99.90
59282;DHT22;45054;52.062;10.010;2024-02-16T00:17:03;11.90;99.90
59282;DHT22;45054;52.062;10.010;2024-02-16T00:19:29;11.90;99.90
59282;DHT22;45054;52.062;10.010;2024-02-16T00:21:55;11.90;99.90
59282;DHT22;45054;52.062;10.010;2024-02-16T00:24:20;11.90;99.90
59282;DHT22;45054;52.062;10.010;2024-02-16T00:26:46;11.80;99.90
59282;DHT22;45054;52.062;10.010;2024-02-16T00:29:11;11.90;99.90
59282;DHT22;45054;52.062;10.010;2024-02-16T00:31:41;11.80;99.90
59282;DHT22;45054;52.062;10.010;2024-02-16T00:34:06;11.80;99.90
59282;DHT22;45054;52.062;10.010;2024-02-16T00:36:32;11.80;99.90
59282;DHT22;45054;52.062;10.010;2024-02-16T00:38:58;11.70;99.90
59282;DHT22;45054;52.062;10.010;2024-02-16T00:41:24;11.70;99.90
59282;DHT22;45054;52.062;10.010;2024-02-16T00:43:50;11.70;99.90
59282;DHT22;45054;52.062;10.010;2024-02-16T00:46:15;11.70;99.90
59282;DHT22;45054;52.062;10.010;2024-02-16T00:48:42;11.70;99.90
59282;DHT22;45054;52.062;10.010;2024-02-16T00:51:09;11.60;99.90
59282;DHT22;45054;52.062;10.010;2024-02-16T00:53:34;11.60;99.90
59282;DHT22;45054;52.062;10.010;2024-02-16T00:56:00;11.60;99.90
59282;DHT22;45054;52.062;10.010;2024-02-16T00:58:25;11.60;99.90
59282;DHT22;45054;52.062;10.010;2024-02-16T01:00:51;11.60;99.90
59282;DHT22;45054;52.062;10.010;2024-02-16T01:03:17;11.50;99.90
59282;DHT22;45054;52.062;10.010;2024-02-16T01:05:44;11.60;99.90
59282;DHT22;45054;52.062;10.010;2024-02-16T01:08:09;11.60;99.90
59282;DHT22;45054;52.062;10.010;2024-02-16T01:10:35;11.50;99.90
59282;DHT22;45054;52.062;10.010;2024-02-16T01:13:00;11.50;99.90
59282;DHT22;45054;52.062;10.010;2024-02-16T01:15:26;11.60;99.90
59282;DHT22;45054;52.062;10.010;2024-02-16T01:17:51;11.60;99.90
59282;DHT22;45054;52.062;10.010;2024-02-16T01:20:17;11.60;99.90
59282;DHT22;45054;52.062;10.010;2024-02-16T01:22:44;11.60;99.90
59282;DHT22;45054;52.062;10.010;2024-02-16T01:25:09;11.60;99.90
59282;DHT22;45054;52.062;10.010;2024-02-16T01:27:35;11.60;99.90
59282;DHT22;45054;52.062;10.010;2024-02-16T01:30:01;11.60;99.90
59282;DHT22;45054;52.062;10.010;2024-02-16T01:32:26;11.60;99.90
59282;DHT22;45054;52.062;10.010;2024-02-16T01:34:52;11.50;99.90
59282;DHT22;45054;52.062;10.010;2024-02-16T01:37:18;11.60;99.90
59282;DHT22;45054;52.062;10.010;2024-02-16T01:39:45;11.50;99.90
59282;DHT22;45054;52.062;10.010;2024-02-16T01:42:11;11.50;99.90
59282;DHT22;45054;52.062;10.010;2024-02-16T01:44:36;11.40;99.90
59282;DHT22;45054;52.062;10.010;2024-02-16T01:47:02;11.40;99.90
59282;DHT22;45054;52.062;10.010;2024-02-16T01:49:28;11.40;99.90
59282;DHT22;45054;52.062;10.010;2024-02-16T01:51:54;11.40;99.90
59282;DHT22;45054;52.062;10.010;2024-02-16T01:54:19;11.40;99.90
59282;DHT22;45054;52.062;10.010;2024-02-16T01:56:49;11.40;99.90
59282;DHT22;45054;52.062;10.010;2024-02-16T01:59:15;11.40;99.90
59282;DHT22;45054;52.062;10.010;2024-02-16T02:01:41;11.30;99.90
59282;DHT22;45054;52.062;10.010;2024-02-16T02:04:06;11.30;99.90
59282;DHT22;45054;52.062;10.010;2024-02-16T02:06:32;11.40;99.90
59282;DHT22;45054;52.062;10.010;2024-02-16T02:08:57;11.40;99.90
59282;DHT22;45054;52.062;10.010;2024-02-16T02:11:23;11.40;99.90
59282;DHT22;45054;52.062;10.010;2024-02-16T02:13:50;11.50;99.90
59282;DHT22;45054;52.062;10.010;2024-02-16T02:16:16;11.50;99.90
59282;DHT22;45054;52.062;10.010;2024-02-16T02:18:43;11.50;99.90
59282;DHT22;45054;52.062;10.010;2024-02-16T02:21:08;11.40;99.90
59282;DHT22;45054;52.062;10.010;2024-02-16T02:23:35;11.40;99.90
59282;DHT22;45054;52.062;10.010;2024-02-16T02:26:01;11.40;99.90
59282;DHT22;45054;52.062;10.010;2024-02-16T02:28:26;11.40;99.90
59282;DHT22;45054;52.062;10.010;2024-02-16T02:30:52;11.40;99.90
59282;DHT22;45054;52.062;10.010;2024-02-16T02:33:18;11.30;99.90
59282;DHT22;45054;52.062;10.010;2024-02-16T02:35:43;11.40;99.90
59282;DHT22;45054;52.062;10.010;2024-02-16T02:38:09;11.30;99.90
59282;DHT22;45054;52.062;10.010;2024-02-16T02:40:36;11.30;99.90
59282;DHT22;45054;52.062;10.010;2024-02-16T02:43:01;11.30;99.90
59282;DHT22;45054;52.062;10.010;2024-02-16T02:45:27;11.30;99.90
59282;DHT22;45054;52.062;10.010;2024-02-16T02:47:53;11.30;99.90
59282;DHT22;45054;52.062;10.010;2024-02-16T02:50:18;11.30;99.90
59282;DHT22;45054;52.062;10.010;2024-02-16T02:52:44;11.30;99.90
59282;DHT22;45054;52.062;10.010;2024-02-16T02:55:09;11.30;99.90
59282;DHT22;45054;52.062;10.010;2024-02-16T02:57:36;11.30;99.90
59282;DHT22;45054;52.062;10.010;2024-02-16T03:00:04;11.30;99.90
59282;DHT22;45054;52.062;10.010;2024-02-16T03:02:29;11.30;99.90
59282;DHT22;45054;52.062;10.010;2024-02-16T03:04:55;11.30;99.90
59282;DHT22;45054;52.062;10.010;2024-02-16T03:07:20;11.30;99.90
59282;DHT22;45054;52.062;10.010;2024-02-16T03:09:46;11.40;99.90
59282;DHT22;45054;52.062;10.010;2024-02-16T03:12:11;11.30;99.90
59282;DHT22;45054;52.062;10.010;2024-02-16T03:14:38;11.40;99.90
59282;DHT22;45054;52.062;10.010;2024-02-16T03:17:04;11.30;99.90
59282;DHT22;45054;52.062;10.010;2024-02-16T03:19:29;11.30;99.90
59282;DHT22;45054;52.062;10.010;2024-02-16T03:21:55;11.40;99.90
59282;DHT22;45054;52.062;10.010;2024-02-16T03:24:21;11.40;99.90
59282;DHT22;45054;52.062;10.010;2024-02-16T03:26:47;11.30;99.90
59282;DHT22;45054;52.062;10.010;2024-02-16T03:29:13;11.40;99.90
59282;DHT22;45054;52.062;10.010;2024-02-16T03:31:40;11.40;99.90
59282;DHT22;45054;52.062;10.010;2024-02-16T03:34:05;11.40;99.90
59282;DHT22;45054;52.062;10.010;2024-02-16T03:36:31;11.40;99.90
59282;DHT22;45054;52.062;10.010;2024-02-16T03:38:56;11.30;99.90
59282;DHT22;45054;52.062;10.010;2024-02-16T03:41:22;11.40;99.90
59282;DHT22;45054;52.062;10.010;2024-02-16T03:43:48;11.40;99.90
59282;DHT22;45054;52.062;10.010;2024-02-16T03:46:14;11.30;99.90
59282;DHT22;45054;52.062;10.010;2024-02-16T03:48:41;11.20;99.90
59282;DHT22;45054;52.062;10.010;2024-02-16T03:51:07;11.20;99.90
59282;DHT22;45054;52.062;10.010;2024-02-16T03:53:33;11.10;99.90
59282;DHT22;45054;52.062;10.010;2024-02-16T03:55:59;11.20;99.90
59282;DHT22;45054;52.062;10.010;2024-02-16T03:58:25;11.20;99.90
59282;DHT22;45054;52.062;10.010;2024-02-16T04:00:50;11.10;99.90
59282;DHT22;45054;52.062;10.010;2024-02-16T04:03:16;11.20;99.90
59282;DHT22;45054;52.062;10.010;2024-02-16T04:05:43;11.20;99.90
59282;DHT22;45054;52.062;10.010;2024-02-16T04:08:09;11.30;99.90
59282;DHT22;45054;52.062;10.010;2024-02-16T04:10:34;11.20;99.90
59282;DHT22;45054;52.062;10.010;2024-02-16T04:13:00;11.20;99.90
59282;DHT22;45054;52.062;10.010;2024-02-16T04:15:26;11.20;99.90
59282;DHT22;45054;52.062;10.010;2024-02-16T04:17:51;11.20;99.90
59282;DHT22;45054;52.062;10.010;2024-02-16T04:20:18;11.20;99.90
59282;DHT22;45054;52.062;10.010;2024-02-16T04:22:45;11.20;99.90
59282;DHT22;45054;52.062;10.010;2024-02-16T04:25:10;11.20;99.90
59282;DHT22;45054;52.062;10.010;2024-02-16T04:27:36;11.20;99.90
59282;DHT22;45054;52.062;10.010;2024-02-16T04:30:02;11.20;99.90
59282;DHT22;45054;52.062;10.010;2024-02-16T04:32:28;11.20;99.90
59282;DHT22;45054;52.062;10.010;2024-02-16T04:34:54;11.20;99.90
59282;DHT22;45054;52.062;10.010;2024-02-16T04:37:19;11.20;99.90
59282;DHT22;45054;52.062;10.010;2024-02-16T04:39:49;11.20;99.90
59282;DHT22;45054;52.062;10.010;2024-02-16T04:42:15;11.10;99.90
59282;DHT22;45054;52.062;10.010;2024-02-16T04:44:40;11.20;99.90
59282;DHT22;45054;52.062;10.010;2024-02-16T04:47:06;11.20;99.90
59282;DHT22;45054;52.062;10.010;2024-02-16T04:49:32;11.20;99.90
59282;DHT22;45054;52.062;10.010;2024-02-16T04:51:58;11.10;99.90
59282;DHT22;45054;52.062;10.010;2024-02-16T04:54:23;11.10;99.90
59282;DHT22;45054;52.062;10.010;2024-02-16T04:56:50;11.20;99.90
59282;DHT22;45054;52.062;10.010;2024-02-16T04:59:16;11.10;99.90
59282;DHT22;45054;52.062;10.010;2024-02-16T05:01:43;11.10;99.90
59282;DHT22;45054;52.062;10.010;2024-02-16T05:04:08;11.10;99.90
59282;DHT22;45054;52.062;10.010;2024-02-16T05:06:38;11.10;99.90
59282;DHT22;45054;52.062;10.010;2024-02-16T05:09:04;11.10;99.90
59282;DHT22;45054;52.062;10.010;2024-02-16T05:11:32;11.10;99.90
59282;DHT22;45054;52.062;10.010;2024-02-16T05:13:59;11.10;99.90
59282;DHT22;45054;52.062;10.010;2024-02-16T05:16:25;11.10;99.90
59282;DHT22;45054;52.062;10.010;2024-02-16T05:18:51;11.10;99.90
59282;DHT22;45054;52.062;10.010;2024-02-16T05:21:17;11.10;99.90
59282;DHT22;45054;52.062;10.010;2024-02-16T05:23:42;11.10;99.90
59282;DHT22;45054;52.062;10.010;2024-02-16T05:26:08;11.10;99.90
59282;DHT22;45054;52.062;10.010;2024-02-16T05:28:33;11.10;99.90
59282;DHT22;45054;52.062;10.010;2024-02-16T05:31:06;11.10;99.90
59282;DHT22;45054;52.062;10.010;2024-02-16T05:33:38;11.10;99.90
59282;DHT22;45054;52.062;10.010;2024-02-16T05:36:04;11.10;99.90
59282;DHT22;45054;52.062;10.010;2024-02-16T05:38:30;11.10;99.90
59282;DHT22;45054;52.062;10.010;2024-02-16T05:40:55;11.10;99.90
59282;DHT22;45054;52.062;10.010;2024-02-16T05:43:21;11.20;99.90
59282;DHT22;45054;52.062;10.010;2024-02-16T05:45:46;11.20;99.90
59282;DHT22;45054;52.062;10.010;2024-02-16T05:48:13;11.20;99.90
59282;DHT22;45054;52.062;10.010;2024-02-16T05:50:39;11.20;99.90
59282;DHT22;45054;52.062;10.010;2024-02-16T05:53:04;11.10;99.90
59282;DHT22;45054;52.062;10.010;2024-02-16T05:55:30;11.10;99.90
59282;DHT22;45054;52.062;10.010;2024-02-16T05:57:55;11.10;99.90
59282;DHT22;45054;52.062;10.010;2024-02-16T06:00:21;11.10;99.90
59282;DHT22;45054;52.062;10.010;2024-02-16T06:02:47;11.10;99.90
59282;DHT22;45054;52.062;10.010;2024-02-16T06:05:14;11.10;99.90
59282;DHT22;45054;52.062;10.010;2024-02-16T06:07:39;11.10;99.90
59282;DHT22;45054;52.062;10.010;2024-02-16T06:10:06;11.10;99.90
59282;DHT22;45054;52.062;10.010;2024-02-16T06:12:31;11.10;99.90
59282;DHT22;45054;52.062;10.010;2024-02-16T06:14:57;11.10;99.90
59282;DHT22;45054;52.062;10.010;2024-02-16T06:17:23;11.10;99.90
59282;DHT22;45054;52.062;10.010;2024-02-16T06:19:48;11.00;99.90
59282;DHT22;45054;52.062;10.010;2024-02-16T06:22:15;11.00;99.90
59282;DHT22;45054;52.062;10.010;2024-02-16T06:24:41;11.00;99.90
59282;DHT22;45054;52.062;10.010;2024-02-16T06:27:06;11.00;99.90
59282;DHT22;45054;52.062;10.010;2024-02-16T06:29:32;10.90;99.90
59282;DHT22;45054;52.062;10.010;2024-02-16T06:31:57;10.90;99.90
59282;DHT22;45054;52.062;10.010;2024-02-16T06:34:23;10.90;99.90
59282;DHT22;45054;52.062;10.010;2024-02-16T06:36:48;10.90;99.90
59282;DHT22;45054;52.062;10.010;2024-02-16T06:39:16;11.00;99.90
59282;DHT22;45054;52.062;10.010;2024-02-16T06:41:42;11.00;99.90
59282;DHT22;45054;52.062;10.010;2024-02-16T06:44:08;11.00;99.90
59282;DHT22;45054;52.062;10.010;2024-02-16T06:46:33;11.00;99.90
59282;DHT22;45054;52.062;10.010;2024-02-16T06:48:59;11.00;99.90
59282;DHT22;45054;52.062;10.010;2024-02-16T06:51:25;11.00;99.90
59282;DHT22;45054;52.062;10.010;2024-02-16T06:53:51;11.00;99.90
59282;DHT22;45054;52.062;10.010;2024-02-16T06:56:18;11.00;99.90
59282;DHT22;45054;52.062;10.010;2024-02-16T06:58:44;11.00;99.90
59282;DHT22;45054;52.062;10.010;2024-02-16T07:01:10;11.00;99.90
59282;DHT22;45054;52.062;10.010;2024-02-16T07:03:36;10.90;99.90
59282;DHT22;45054;52.062;10.010;2024-02-16T07:06:01;10.90;99.90
59282;DHT22;45054;52.062;10.010;2024-02-16T07:08:27;11.00;99.90
59282;DHT22;45054;52.062;10.010;2024-02-16T07:10:52;11.00;99.90
59282;DHT22;45054;52.062;10.010;2024-02-16T07:13:19;11.00;99.90
59282;DHT22;45054;52.062;10.010;2024-02-16T07:15:45;11.00;99.90
59282;DHT22;45054;52.062;10.010;2024-02-16T07:18:11;11.10;99.90
59282;DHT22;45054;52.062;10.010;2024-02-16T07:20:37;11.10;99.90
59282;DHT22;45054;52.062;10.010;2024-02-16T07:23:02;11.10;99.90
59282;DHT22;45054;52.062;10.010;2024-02-16T07:25:28;11.10;99.90
59282;DHT22;45054;52.062;10.010;2024-02-16T07:27:53;11.10;99.90
59282;DHT22;45054;52.062;10.010;2024-02-16T07:30:20;11.10;99.90
59282;DHT22;45054;52.062;10.010;2024-02-16T07:32:48;11.10;99.90
59282;DHT22;45054;52.062;10.010;2024-02-16T07:35:14;11.10;99.90
59282;DHT22;45054;52.062;10.010;2024-02-16T07:37:39;11.10;99.90
59282;DHT22;45054;52.062;10.010;2024-02-16T07:40:06;11.10;99.90
59282;DHT22;45054;52.062;10.010;2024-02-16T07:42:32;11.20;99.90
59282;DHT22;45054;52.062;10.010;2024-02-16T07:44:57;11.20;99.90
59282;DHT22;45054;52.062;10.010;2024-02-16T07:47:24;11.20;99.90
59282;DHT22;45054;52.062;10.010;2024-02-16T07:49:50;11.20;99.90
59282;DHT22;45054;52.062;10.010;2024-02-16T07:52:15;11.30;99.90
59282;DHT22;45054;52.062;10.010;2024-02-16T07:54:41;11.30;99.90
59282;DHT22;45054;52.062;10.010;2024-02-16T07:57:06;11.30;99.90
59282;DHT22;45054;52.062;10.010;2024-02-16T07:59:32;11.30;99.90
59282;DHT22;45054;52.062;10.010;2024-02-16T08:01:57;11.30;99.90
59282;DHT22;45054;52.062;10.010;2024-02-16T08:04:24;11.30;99.90
59282;DHT22;45054;52.062;10.010;2024-02-16T08:06:50;11.30;99.90
59282;DHT22;45054;52.062;10.010;2024-02-16T08:09:15;11.40;99.90
59282;DHT22;45054;52.062;10.010;2024-02-16T08:11:41;11.30;99.90
59282;DHT22;45054;52.062;10.010;2024-02-16T08:14:07;11.30;99.90
59282;DHT22;45054;52.062;10.010;2024-02-16T08:16:32;11.30;99.90
59282;DHT22;45054;52.062;10.010;2024-02-16T08:18:58;11.40;99.90
59282;DHT22;45054;52.062;10.010;2024-02-16T08:21:25;11.40;99.90
59282;DHT22;45054;52.062;10.010;2024-02-16T08:23:50;11.50;99.90
59282;DHT22;45054;52.062;10.010;2024-02-16T08:26:16;11.50;99.90
59282;DHT22;45054;52.062;10.010;2024-02-16T08:28:43;11.60;99.90
59282;DHT22;45054;52.062;10.010;2024-02-16T08:31:09;11.60;99.90
59282;DHT22;45054;52.062;10.010;2024-02-16T08:33:34;11.70;99.90
59282;DHT22;45054;52.062;10.010;2024-02-16T08:36:00;11.70;99.90
59282;DHT22;45054;52.062;10.010;2024-02-16T08:38:27;11.80;99.90
59282;DHT22;45054;52.062;10.010;2024-02-16T08:40:52;11.80;99.90
59282;DHT22;45054;52.062;10.010;2024-02-16T08:43:18;11.90;99.90
59282;DHT22;45054;52.062;10.010;2024-02-16T08:45:43;12.00;99.90
59282;DHT22;45054;52.062;10.010;2024-02-16T08:48:09;12.00;99.90
59282;DHT22;45054;52.062;10.010;2024-02-16T08:50:34;12.00;99.90
59282;DHT22;45054;52.062;10.010;2024-02-16T08:53:00;12.10;99.90
59282;DHT22;45054;52.062;10.010;2024-02-16T08:55:27;12.20;99.90
59282;DHT22;45054;52.062;10.010;2024-02-16T08:57:52;12.30;99.90
59282;DHT22;45054;52.062;10.010;2024-02-16T09:00:18;12.30;99.90
59282;DHT22;45054;52.062;10.010;2024-02-16T09:02:44;12.30;99.90
59282;DHT22;45054;52.062;10.010;2024-02-16T09:05:10;12.40;99.90
59282;DHT22;45054;52.062;10.010;2024-02-16T09:07:36;12.50;99.90
59282;DHT22;45054;52.062;10.010;2024-02-16T09:10:01;12.50;99.90
59282;DHT22;45054;52.062;10.010;2024-02-16T09:12:28;12.60;99.90
59282;DHT22;45054;52.062;10.010;2024-02-16T09:14:54;12.60;99.90
59282;DHT22;45054;52.062;10.010;2024-02-16T09:17:19;12.60;99.90
59282;DHT22;45054;52.062;10.010;2024-02-16T09:19:45;12.60;99.90
59282;DHT22;45054;52.062;10.010;2024-02-16T09:22:10;12.70;99.90
59282;DHT22;45054;52.062;10.010;2024-02-16T09:24:36;12.70;99.90
59282;DHT22;45054;52.062;10.010;2024-02-16T09:27:01;12.70;99.90
59282;DHT22;45054;52.062;10.010;2024-02-16T09:29:28;12.70;99.90
59282;DHT22;45054;52.062;10.010;2024-02-16T09:31:54;12.80;99.90
59282;DHT22;45054;52.062;10.010;2024-02-16T09:34:20;12.80;99.90
59282;DHT22;45054;52.062;10.010;2024-02-16T09:36:45;12.90;99.90
59282;DHT22;45054;52.062;10.010;2024-02-16T09:39:11;12.90;99.90
59282;DHT22;45054;52.062;10.010;2024-02-16T09:41:40;12.90;99.90
59282;DHT22;45054;52.062;10.010;2024-02-16T09:44:06;12.90;99.90
59282;DHT22;45054;52.062;10.010;2024-02-16T09:46:33;13.00;99.90
59282;DHT22;45054;52.062;10.010;2024-02-16T09:49:01;13.00;99.90
59282;DHT22;45054;52.062;10.010;2024-02-16T09:51:27;13.10;99.90
59282;DHT22;45054;52.062;10.010;2024-02-16T09:53:53;13.10;99.90
59282;DHT22;45054;52.062;10.010;2024-02-16T09:56:18;13.10;99.90
59282;DHT22;45054;52.062;10.010;2024-02-16T09:58:44;13.20;99.90
59282;DHT22;45054;52.062;10.010;2024-02-16T10:01:17;13.20;99.90
59282;DHT22;45054;52.062;10.010;2024-02-16T10:03:44;13.40;99.90
59282;DHT22;45054;52.062;10.010;2024-02-16T10:06:11;13.50;99.90
59282;DHT22;45054;52.062;10.010;2024-02-16T10:08:47;13.50;99.90
59282;DHT22;45054;52.062;10.010;2024-02-16T10:11:12;13.60;99.90
59282;DHT22;45054;52.062;10.010;2024-02-16T10:13:39;13.60;99.90
59282;DHT22;45054;52.062;10.010;2024-02-16T10:16:06;13.60;99.90
59282;DHT22;45054;52.062;10.010;2024-02-16T10:18:31;13.60;99.90
59282;DHT22;45054;52.062;10.010;2024-02-16T10:20:58;13.50;99.90
59282;DHT22;45054;52.062;10.010;2024-02-16T10:23:24;13.60;99.90
59282;DHT22;45054;52.062;10.010;2024-02-16T10:25:50;13.60;99.90
59282;DHT22;45054;52.062;10.010;2024-02-16T10:28:15;13.50;99.90
59282;DHT22;45054;52.062;10.010;2024-02-16T10:30:42;13.50;99.90
59282;DHT22;45054;52.062;10.010;2024-02-16T10:33:07;13.60;99.90
59282;DHT22;45054;52.062;10.010;2024-02-16T10:35:34;13.60;99.90
59282;DHT22;45054;52.062;10.010;2024-02-16T10:38:02;13.60;99.90
59282;DHT22;45054;52.062;10.010;2024-02-16T10:40:28;13.50;99.90
59282;DHT22;45054;52.062;10.010;2024-02-16T10:42:54;13.50;99.90
59282;DHT22;45054;52.062;10.010;2024-02-16T10:45:20;13.60;99.90
59282;DHT22;45054;52.062;10.010;2024-02-16T10:47:47;13.60;99.90
59282;DHT22;45054;52.062;10.010;2024-02-16T10:50:12;13.60;99.90
59282;DHT22;45054;52.062;10.010;2024-02-16T10:52:39;13.60;99.90
59282;DHT22;45054;52.062;10.010;2024-02-16T10:55:08;13.60;99.90
59282;DHT22;45054;52.062;10.010;2024-02-16T10:57:35;13.60;99.90
59282;DHT22;45054;52.062;10.010;2024-02-16T11:00:01;13.60;99.90
59282;DHT22;45054;52.062;10.010;2024-02-16T11:02:32;13.60;99.90
59282;DHT22;45054;52.062;10.010;2024-02-16T11:04:58;13.60;99.90
59282;DHT22;45054;52.062;10.010;2024-02-16T11:07:24;13.70;99.90
59282;DHT22;45054;52.062;10.010;2024-02-16T11:09:50;13.70;99.90
59282;DHT22;45054;52.062;10.010;2024-02-16T11:12:17;13.70;99.90
59282;DHT22;45054;52.062;10.010;2024-02-16T11:14:43;13.70;99.90
59282;DHT22;45054;52.062;10.010;2024-02-16T11:17:10;13.70;99.90
59282;DHT22;45054;52.062;10.010;2024-02-16T11:19:36;13.80;99.90
59282;DHT22;45054;52.062;10.010;2024-02-16T11:22:03;13.80;99.90
59282;DHT22;45054;52.062;10.010;2024-02-16T11:24:32;13.90;99.90
59282;DHT22;45054;52.062;10.010;2024-02-16T11:26:57;13.80;99.90
59282;DHT22;45054;52.062;10.010;2024-02-16T11:29:25;13.80;99.90
59282;DHT22;45054;52.062;10.010;2024-02-16T11:31:51;14.00;99.90
59282;DHT22;45054;52.062;10.010;2024-02-16T11:34:21;14.00;99.90
59282;DHT22;45054;52.062;10.010;2024-02-16T11:36:47;14.10;99.90
59282;DHT22;45054;52.062;10.010;2024-02-16T11:39:13;14.20;99.90
59282;DHT22;45054;52.062;10.010;2024-02-16T11:41:38;14.20;99.90
59282;DHT22;45054;52.062;10.010;2024-02-16T11:44:04;14.30;99.90
59282;DHT22;45054;52.062;10.010;2024-02-16T11:46:31;14.40;99.90
59282;DHT22;45054;52.062;10.010;2024-02-16T11:49:04;14.30;99.90
59282;DHT22;45054;52.062;10.010;2024-02-16T11:51:30;14.30;99.90
59282;DHT22;45054;52.062;10.010;2024-02-16T11:53:56;14.30;99.90
59282;DHT22;45054;52.062;10.010;2024-02-16T11:56:22;14.30;99.90
59282;DHT22;45054;52.062;10.010;2024-02-16T11:58:48;14.30;99.90
59282;DHT22;45054;52.062;10.010;2024-02-16T12:01:14;14.40;99.90
59282;DHT22;45054;52.062;10.010;2024-02-16T12:03:41;14.40;99.90
59282;DHT22;45054;52.062;10.010;2024-02-16T12:06:07;14.40;99.90
59282;DHT22;45054;52.062;10.010;2024-02-16T12:08:33;14.40;99.90
59282;DHT22;45054;52.062;10.010;2024-02-16T12:10:59;14.40;99.90
59282;DHT22;45054;52.062;10.010;2024-02-16T12:13:25;14.40;99.90
59282;DHT22;45054;52.062;10.010;2024-02-16T12:15:52;14.40;99.90
59282;DHT22;45054;52.062;10.010;2024-02-16T12:18:20;14.50;99.90
59282;DHT22;45054;52.062;10.010;2024-02-16T12:20:58;14.50;99.90
59282;DHT22;45054;52.062;10.010;2024-02-16T12:23:23;14.50;99.90
59282;DHT22;45054;52.062;10.010;2024-02-16T12:25:49;14.50;99.90
59282;DHT22;45054;52.062;10.010;2024-02-16T12:28:15;14.60;99.90
59282;DHT22;45054;52.062;10.010;2024-02-16T12:30:40;14.60;99.90
59282;DHT22;45054;52.062;10.010;2024-02-16T12:33:06;14.70;99.90
59282;DHT22;45054;52.062;10.010;2024-02-16T12:35:31;14.80;99.90
59282;DHT22;45054;52.062;10.010;2024-02-16T12:37:58;14.80;99.90
59282;DHT22;45054;52.062;10.010;2024-02-16T12:40:24;14.80;99.90
59282;DHT22;45054;52.062;10.010;2024-02-16T12:42:49;14.80;99.90
59282;DHT22;45054;52.062;10.010;2024-02-16T12:45:15;14.90;99.90
59282;DHT22;45054;52.062;10.010;2024-02-16T12:47:41;14.90;99.90
59282;DHT22;45054;52.062;10.010;2024-02-16T12:50:07;14.90;99.90
59282;DHT22;45054;52.062;10.010;2024-02-16T12:52:32;14.90;99.90
59282;DHT22;45054;52.062;10.010;2024-02-16T12:54:59;14.90;99.90
59282;DHT22;45054;52.062;10.010;2024-02-16T12:57:25;15.00;99.90
59282;DHT22;45054;52.062;10.010;2024-02-16T12:59:50;15.00;99.90
59282;DHT22;45054;52.062;10.010;2024-02-16T13:02:16;15.00;99.90
59282;DHT22;45054;52.062;10.010;2024-02-16T13:04:42;15.00;99.90
59282;DHT22;45054;52.062;10.010;2024-02-16T13:07:07;14.90;99.90
59282;DHT22;45054;52.062;10.010;2024-02-16T13:09:33;14.90;99.90
59282;DHT22;45054;52.062;10.010;2024-02-16T13:12:00;14.90;99.90
59282;DHT22;45054;52.062;10.010;2024-02-16T13:14:25;14.90;99.90
59282;DHT22;45054;52.062;10.010;2024-02-16T13:16:51;14.80;99.90
59282;DHT22;45054;52.062;10.010;2024-02-16T13:19:16;14.80;99.90
59282;DHT22;45054;52.062;10.010;2024-02-16T13:21:43;14.80;99.90
59282;DHT22;45054;52.062;10.010;2024-02-16T13:24:09;14.70;99.90
59282;DHT22;45054;52.062;10.010;2024-02-16T13:26:34;14.70;99.90
59282;DHT22;45054;52.062;10.010;2024-02-16T13:29:02;14.60;99.90
59282;DHT22;45054;52.062;10.010;2024-02-16T13:31:28;14.60;99.90
59282;DHT22;45054;52.062;10.010;2024-02-16T13:33:54;14.40;99.90
59282;DHT22;45054;52.062;10.010;2024-02-16T13:36:19;14.40;99.90
59282;DHT22;45054;52.062;10.010;2024-02-16T13:38:45;14.40;99.90
59282;DHT22;45054;52.062;10.010;2024-02-16T13:41:11;14.30;99.90
59282;DHT22;45054;52.062;10.010;2024-02-16T13:43:36;14.30;99.90
59282;DHT22;45054;52.062;10.010;2024-02-16T13:46:04;14.30;99.90
59282;DHT22;45054;52.062;10.010;2024-02-16T13:48:29;14.20;99.90
59282;DHT22;45054;52.062;10.010;2024-02-16T13:50:55;14.20;99.90
59282;DHT22;45054;52.062;10.010;2024-02-16T13:53:20;14.10;99.90
59282;DHT22;45054;52.062;10.010;2024-02-16T13:55:46;14.10;99.90
59282;DHT22;45054;52.062;10.010;2024-02-16T13:58:12;14.10;99.90
59282;DHT22;45054;52.062;10.010;2024-02-16T14:00:38;14.10;99.90
59282;DHT22;45054;52.062;10.010;2024-02-16T14:03:05;14.10;99.90
59282;DHT22;45054;52.062;10.010;2024-02-16T14:05:31;14.10;99.90
59282;DHT22;45054;52.062;10.010;2024-02-16T14:07:57;14.00;99.90
59282;DHT22;45054;52.062;10.010;2024-02-16T14:10:22;14.00;99.90
59282;DHT22;45054;52.062;10.010;2024-02-16T14:12:48;13.90;99.90
59282;DHT22;45054;52.062;10.010;2024-02-16T14:15:14;13.90;99.90
59282;DHT22;45054;52.062;10.010;2024-02-16T14:17:39;13.90;99.90
59282;DHT22;45054;52.062;10.010;2024-02-16T14:20:07;13.90;99.90
59282;DHT22;45054;52.062;10.010;2024-02-16T14:22:33;13.80;99.90
59282;DHT22;45054;52.062;10.010;2024-02-16T14:24:59;13.80;99.90
59282;DHT22;45054;52.062;10.010;2024-02-16T14:27:24;13.80;99.90
59282;DHT22;45054;52.062;10.010;2024-02-16T14:29:50;13.80;99.90
59282;DHT22;45054;52.062;10.010;2024-02-16T14:32:15;13.70;99.90
59282;DHT22;45054;52.062;10.010;2024-02-16T14:34:41;13.70;99.90
59282;DHT22;45054;52.062;10.010;2024-02-16T14:37:08;13.80;99.90
59282;DHT22;45054;52.062;10.010;2024-02-16T14:39:33;13.80;99.90
59282;DHT22;45054;52.062;10.010;2024-02-16T14:41:59;13.70;99.90
59282;DHT22;45054;52.062;10.010;2024-02-16T14:44:24;13.70;99.90
59282;DHT22;45054;52.062;10.010;2024-02-16T14:46:50;13.70;99.90
59282;DHT22;45054;52.062;10.010;2024-02-16T14:49:15;13.70;99.90
59282;DHT22;45054;52.062;10.010;2024-02-16T14:51:44;13.70;99.90
59282;DHT22;45054;52.062;10.010;2024-02-16T14:54:16;13.70;99.90
59282;DHT22;45054;52.062;10.010;2024-02-16T14:56:41;13.70;99.90
59282;DHT22;45054;52.062;10.010;2024-02-16T14:59:07;13.80;99.90
59282;DHT22;45054;52.062;10.010;2024-02-16T15:01:33;13.70;99.90
59282;DHT22;45054;52.062;10.010;2024-02-16T15:03:58;13.70;99.90
59282;DHT22;45054;52.062;10.010;2024-02-16T15:06:24;13.70;99.90